createdAt,value
2023-05-18T00:00:16.563Z,1015.78
2023-05-18T00:01:16.474Z,1015.81
2023-05-18T00:02:16.529Z,1015.84
2023-05-18T00:03:16.552Z,1015.88
2023-05-18T00:04:16.516Z,1015.91
2023-05-18T00:05:16.486Z,1015.98
2023-05-18T00:06:16.469Z,1015.98
2023-05-18T00:07:16.624Z,1016.03
2023-05-18T00:08:16.475Z,1016.10
2023-05-18T00:09:16.474Z,1016.08
2023-05-18T00:10:16.542Z,1016.06
2023-05-18T00:11:16.470Z,1016.10
2023-05-18T00:12:16.468Z,1016.10
2023-05-18T00:13:16.472Z,1016.12
2023-05-18T00:14:16.465Z,1016.10
2023-05-18T00:15:16.462Z,1016.13
2023-05-18T00:16:16.555Z,1016.17
2023-05-18T00:17:16.463Z,1016.18
2023-05-18T00:18:16.468Z,1016.15
2023-05-18T00:19:16.525Z,1016.16
2023-05-18T00:20:16.458Z,1016.16
2023-05-18T00:21:16.465Z,1016.19
2023-05-18T00:22:16.460Z,1016.14
2023-05-18T00:23:16.516Z,1016.10
2023-05-18T00:24:16.503Z,1016.10
2023-05-18T00:25:16.471Z,1016.11
2023-05-18T00:26:16.458Z,1016.15
2023-05-18T00:27:16.454Z,1016.18
2023-05-18T00:28:16.455Z,1016.18
2023-05-18T00:29:16.453Z,1016.17
2023-05-18T00:30:16.453Z,1016.20
2023-05-18T00:31:16.473Z,1016.21
2023-05-18T00:32:16.481Z,1016.24
2023-05-18T00:33:16.452Z,1016.26
2023-05-18T00:34:16.478Z,1016.28
2023-05-18T00:35:16.457Z,1016.31
2023-05-18T00:36:16.465Z,1016.36
2023-05-18T00:37:16.454Z,1016.34
2023-05-18T00:38:16.449Z,1016.37
2023-05-18T00:39:16.456Z,1016.40
2023-05-18T00:40:16.496Z,1016.40
2023-05-18T00:41:16.453Z,1016.43
2023-05-18T00:42:16.454Z,1016.38
2023-05-18T00:43:16.463Z,1016.41
2023-05-18T00:44:16.451Z,1016.46
2023-05-18T00:45:16.457Z,1016.45
2023-05-18T00:46:16.482Z,1016.44
2023-05-18T00:47:16.447Z,1016.39
2023-05-18T00:48:16.588Z,1016.43
2023-05-18T00:49:16.466Z,1016.50
2023-05-18T00:50:16.437Z,1016.50
2023-05-18T00:51:16.439Z,1016.46
2023-05-18T00:52:16.432Z,1016.49
2023-05-18T00:53:16.444Z,1016.52
2023-05-18T00:54:16.438Z,1016.48
2023-05-18T00:55:16.440Z,1016.47
2023-05-18T00:56:16.432Z,1016.52
2023-05-18T00:57:16.437Z,1016.57
2023-05-18T00:58:16.432Z,1016.55
2023-05-18T00:59:16.445Z,1016.62
2023-05-18T01:00:16.447Z,1016.58
2023-05-18T01:01:16.461Z,1016.59
2023-05-18T01:02:16.472Z,1016.62
2023-05-18T01:03:16.529Z,1016.60
2023-05-18T01:04:16.472Z,1016.56
2023-05-18T01:05:16.431Z,1016.60
2023-05-18T01:06:16.433Z,1016.61
2023-05-18T01:07:16.452Z,1016.61
2023-05-18T01:08:16.431Z,1016.53
2023-05-18T01:09:16.434Z,1016.59
2023-05-18T01:10:16.421Z,1016.55
2023-05-18T01:11:16.481Z,1016.55
2023-05-18T01:12:16.429Z,1016.65
2023-05-18T01:13:16.430Z,1016.62
2023-05-18T01:14:16.437Z,1016.64
2023-05-18T01:15:16.418Z,1016.58
2023-05-18T01:16:16.418Z,1016.61
2023-05-18T01:17:16.498Z,1016.63
2023-05-18T01:18:16.436Z,1016.62
2023-05-18T01:19:16.579Z,1016.66
2023-05-18T01:20:16.432Z,1016.65
2023-05-18T01:21:16.421Z,1016.65
2023-05-18T01:22:16.407Z,1016.64
2023-05-18T01:23:16.412Z,1016.67
2023-05-18T01:24:16.428Z,1016.64
2023-05-18T01:25:16.410Z,1016.65
2023-05-18T01:26:16.409Z,1016.64
2023-05-18T01:27:16.409Z,1016.69
2023-05-18T01:28:16.407Z,1016.74
2023-05-18T01:29:16.404Z,1016.70
2023-05-18T01:30:16.409Z,1016.69
2023-05-18T01:31:16.683Z,1016.66
2023-05-18T01:32:16.401Z,1016.64
2023-05-18T01:33:16.407Z,1016.65
2023-05-18T01:34:16.405Z,1016.66
2023-05-18T01:35:16.407Z,1016.64
2023-05-18T01:36:16.416Z,1016.57
2023-05-18T01:37:16.398Z,1016.63
2023-05-18T01:38:16.396Z,1016.65
2023-05-18T01:39:16.395Z,1016.65
2023-05-18T01:40:16.397Z,1016.68
2023-05-18T01:41:16.391Z,1016.71
2023-05-18T01:42:16.399Z,1016.69
2023-05-18T01:43:16.393Z,1016.64
2023-05-18T01:44:16.392Z,1016.67
2023-05-18T01:45:16.409Z,1016.76
2023-05-18T01:46:16.461Z,1016.79
2023-05-18T01:47:16.388Z,1016.77
2023-05-18T01:48:16.387Z,1016.82
2023-05-18T01:49:16.382Z,1016.83
2023-05-18T01:50:16.388Z,1016.78
2023-05-18T01:51:16.387Z,1016.78
2023-05-18T01:52:16.423Z,1016.71
2023-05-18T01:53:16.384Z,1016.74
2023-05-18T01:54:16.380Z,1016.76
2023-05-18T01:55:16.398Z,1016.80
2023-05-18T01:56:16.381Z,1016.76
2023-05-18T01:57:16.390Z,1016.82
2023-05-18T01:58:16.381Z,1016.80
2023-05-18T01:59:16.377Z,1016.75
2023-05-18T02:00:16.369Z,1016.62
2023-05-18T02:01:16.398Z,1016.77
2023-05-18T02:02:16.497Z,1016.78
2023-05-18T02:03:16.488Z,1016.78
2023-05-18T02:04:16.462Z,1016.79
2023-05-18T02:05:16.378Z,1016.89
2023-05-18T02:06:16.372Z,1016.91
2023-05-18T02:07:16.411Z,1016.87
2023-05-18T02:08:16.403Z,1016.88
2023-05-18T02:09:16.369Z,1016.90
2023-05-18T02:10:16.377Z,1016.94
2023-05-18T02:11:16.359Z,1016.95
2023-05-18T02:12:16.366Z,1017.01
2023-05-18T02:13:16.365Z,1016.97
2023-05-18T02:14:16.409Z,1017.01
2023-05-18T02:15:16.374Z,1017.00
2023-05-18T02:16:16.401Z,1017.06
2023-05-18T02:17:16.356Z,1017.09
2023-05-18T02:18:16.355Z,1017.06
2023-05-18T02:19:16.390Z,1017.10
2023-05-18T02:20:16.353Z,1017.13
2023-05-18T02:21:16.353Z,1017.07
2023-05-18T02:22:16.365Z,1017.11
2023-05-18T02:23:16.359Z,1017.07
2023-05-18T02:24:16.380Z,1017.09
2023-05-18T02:25:16.348Z,1017.09
2023-05-18T02:26:16.347Z,1017.10
2023-05-18T02:27:16.354Z,1017.10
2023-05-18T02:28:16.346Z,1017.11
2023-05-18T02:29:16.350Z,1017.10
2023-05-18T02:30:16.351Z,1017.16
2023-05-18T02:31:16.381Z,1017.17
2023-05-18T02:32:16.470Z,1017.23
2023-05-18T02:33:16.342Z,1017.25
2023-05-18T02:34:16.340Z,1017.26
2023-05-18T02:35:16.340Z,1017.26
2023-05-18T02:36:16.335Z,1017.33
2023-05-18T02:37:16.338Z,1017.31
2023-05-18T02:38:16.336Z,1017.27
2023-05-18T02:39:16.327Z,1017.28
2023-05-18T02:40:16.454Z,1017.30
2023-05-18T02:41:16.330Z,1017.28
2023-05-18T02:42:16.332Z,1017.35
2023-05-18T02:43:16.334Z,1017.36
2023-05-18T02:44:16.326Z,1017.40
2023-05-18T02:45:16.326Z,1017.39
2023-05-18T02:46:16.378Z,1017.39
2023-05-18T02:47:16.325Z,1017.40
2023-05-18T02:48:16.332Z,1017.43
2023-05-18T02:49:16.332Z,1017.56
2023-05-18T02:50:16.326Z,1017.51
2023-05-18T02:51:16.326Z,1017.59
2023-05-18T02:52:16.320Z,1017.54
2023-05-18T02:53:16.329Z,1017.56
2023-05-18T02:54:16.323Z,1017.59
2023-05-18T02:55:16.322Z,1017.57
2023-05-18T02:56:16.349Z,1017.61
2023-05-18T02:57:16.331Z,1017.63
2023-05-18T02:58:16.325Z,1017.61
2023-05-18T02:59:16.321Z,1017.64
2023-05-18T03:00:16.325Z,1017.63
2023-05-18T03:01:16.333Z,1017.60
2023-05-18T03:02:16.368Z,1017.65
2023-05-18T03:03:16.506Z,1017.64
2023-05-18T03:04:16.315Z,1017.65
2023-05-18T03:05:16.325Z,1017.63
2023-05-18T03:06:16.321Z,1017.64
2023-05-18T03:07:16.321Z,1017.62
2023-05-18T03:08:16.313Z,1017.57
2023-05-18T03:09:16.309Z,1017.64
2023-05-18T03:10:16.313Z,1017.67
2023-05-18T03:11:16.317Z,1017.68
2023-05-18T03:12:16.326Z,1017.65
2023-05-18T03:13:16.312Z,1017.73
2023-05-18T03:14:16.316Z,1017.73
2023-05-18T03:15:16.356Z,1017.75
2023-05-18T03:16:16.330Z,1017.70
2023-05-18T03:17:16.304Z,1017.76
2023-05-18T03:18:16.307Z,1017.77
2023-05-18T03:19:16.398Z,1017.71
2023-05-18T03:20:16.305Z,1017.77
2023-05-18T03:21:16.305Z,1017.71
2023-05-18T03:22:16.305Z,1017.75
2023-05-18T03:23:16.297Z,1017.75
2023-05-18T03:24:16.302Z,1017.74
2023-05-18T03:25:16.297Z,1017.73
2023-05-18T03:26:16.302Z,1017.77
2023-05-18T03:27:16.296Z,1017.82
2023-05-18T03:28:16.369Z,1017.78
2023-05-18T03:29:16.295Z,1017.84
2023-05-18T03:30:16.295Z,1017.88
2023-05-18T03:31:16.379Z,1017.86
2023-05-18T03:32:16.441Z,1017.89
2023-05-18T03:33:16.383Z,1017.92
2023-05-18T03:34:16.281Z,1017.96
2023-05-18T03:35:16.290Z,1017.97
2023-05-18T03:36:16.286Z,1017.98
2023-05-18T03:37:16.286Z,1017.98
2023-05-18T03:38:16.288Z,1018.02
2023-05-18T03:39:16.340Z,1018.04
2023-05-18T03:40:16.303Z,1018.00
2023-05-18T03:41:16.287Z,1017.96
2023-05-18T03:42:16.284Z,1018.03
2023-05-18T03:43:16.289Z,1018.05
2023-05-18T03:44:16.311Z,1018.04
2023-05-18T03:45:16.282Z,1018.06
2023-05-18T03:46:16.309Z,1018.09
2023-05-18T03:47:16.274Z,1018.15
2023-05-18T03:48:16.276Z,1018.19
2023-05-18T03:49:16.278Z,1018.16
2023-05-18T03:50:16.278Z,1018.20
2023-05-18T03:51:16.271Z,1018.23
2023-05-18T03:52:16.423Z,1018.26
2023-05-18T03:53:16.277Z,1018.28
2023-05-18T03:54:16.274Z,1018.33
2023-05-18T03:55:16.266Z,1018.30
2023-05-18T03:56:16.272Z,1018.31
2023-05-18T03:57:16.272Z,1018.35
2023-05-18T03:58:16.266Z,1018.43
2023-05-18T03:59:16.265Z,1018.43
2023-05-18T04:00:16.289Z,1018.44
2023-05-18T04:01:16.263Z,1018.43
2023-05-18T04:02:16.293Z,1018.45
2023-05-18T04:03:16.356Z,1018.45
2023-05-18T04:04:16.372Z,1018.47
2023-05-18T04:05:16.259Z,1018.51
2023-05-18T04:06:16.273Z,1018.50
2023-05-18T04:07:16.274Z,1018.43
2023-05-18T04:08:16.266Z,1018.45
2023-05-18T04:09:16.256Z,1018.47
2023-05-18T04:10:16.258Z,1018.49
2023-05-18T04:11:16.260Z,1018.46
2023-05-18T04:12:16.578Z,1018.54
2023-05-18T04:13:16.252Z,1018.54
2023-05-18T04:14:16.258Z,1018.53
2023-05-18T04:15:16.258Z,1018.59
2023-05-18T04:16:16.304Z,1018.53
2023-05-18T04:17:16.246Z,1018.58
2023-05-18T04:18:16.252Z,1018.55
2023-05-18T04:19:16.297Z,1018.62
2023-05-18T04:20:16.249Z,1018.62
2023-05-18T04:21:16.256Z,1018.63
2023-05-18T04:22:16.252Z,1018.66
2023-05-18T04:23:16.251Z,1018.70
2023-05-18T04:24:16.243Z,1018.63
2023-05-18T04:25:16.365Z,1018.67
2023-05-18T04:26:16.235Z,1018.70
2023-05-18T04:27:16.244Z,1018.66
2023-05-18T04:28:16.248Z,1018.68
2023-05-18T04:29:16.236Z,1018.68
2023-05-18T04:30:16.239Z,1018.72
2023-05-18T04:31:16.235Z,1018.73
2023-05-18T04:32:16.487Z,1018.71
2023-05-18T04:33:16.381Z,1018.80
2023-05-18T04:34:16.229Z,1018.76
2023-05-18T04:35:16.229Z,1018.80
2023-05-18T04:36:16.238Z,1018.77
2023-05-18T04:37:16.276Z,1018.81
2023-05-18T04:38:16.225Z,1018.79
2023-05-18T04:39:16.228Z,1018.83
2023-05-18T04:40:16.231Z,1018.75
2023-05-18T04:41:16.224Z,1018.76
2023-05-18T04:42:16.222Z,1018.79
2023-05-18T04:43:16.229Z,1018.81
2023-05-18T04:44:16.228Z,1018.82
2023-05-18T04:45:16.218Z,1018.83
2023-05-18T04:46:16.240Z,1018.85
2023-05-18T04:47:16.220Z,1018.88
2023-05-18T04:48:16.246Z,1018.85
2023-05-18T04:49:16.225Z,1018.90
2023-05-18T04:50:16.215Z,1018.85
2023-05-18T04:51:16.215Z,1018.87
2023-05-18T04:52:16.226Z,1018.86
2023-05-18T04:53:16.213Z,1018.85
2023-05-18T04:54:16.256Z,1018.83
2023-05-18T04:55:16.214Z,1018.84
2023-05-18T04:56:16.209Z,1018.86
2023-05-18T04:57:16.212Z,1018.86
2023-05-18T04:58:16.215Z,1018.82
2023-05-18T04:59:16.209Z,1018.87
2023-05-18T05:00:16.211Z,1018.86
2023-05-18T05:01:16.237Z,1018.85
2023-05-18T05:02:16.212Z,1018.95
2023-05-18T05:03:16.246Z,1018.90
2023-05-18T05:04:16.259Z,1018.93
2023-05-18T05:05:16.203Z,1019.01
2023-05-18T05:06:16.197Z,1019.03
2023-05-18T05:07:16.197Z,1019.01
2023-05-18T05:08:16.215Z,1019.06
2023-05-18T05:09:16.196Z,1019.07
2023-05-18T05:10:16.189Z,1019.08
2023-05-18T05:11:16.198Z,1019.08
2023-05-18T05:12:16.201Z,1019.09
2023-05-18T05:13:16.192Z,1019.17
2023-05-18T05:14:16.198Z,1019.19
2023-05-18T05:15:16.209Z,1019.19
2023-05-18T05:16:16.212Z,1019.28
2023-05-18T05:17:16.193Z,1019.25
2023-05-18T05:18:16.189Z,1019.24
2023-05-18T05:19:16.221Z,1019.29
2023-05-18T05:20:16.254Z,1019.24
2023-05-18T05:21:16.188Z,1019.28
2023-05-18T05:22:16.182Z,1019.27
2023-05-18T05:23:16.249Z,1019.30
2023-05-18T05:24:16.178Z,1019.24
2023-05-18T05:25:16.193Z,1019.29
2023-05-18T05:26:16.204Z,1019.26
2023-05-18T05:27:16.176Z,1019.36
2023-05-18T05:28:16.178Z,1019.33
2023-05-18T05:29:16.171Z,1019.35
2023-05-18T05:30:16.173Z,1019.33
2023-05-18T05:31:16.194Z,1019.29
2023-05-18T05:32:16.174Z,1019.44
2023-05-18T05:33:16.225Z,1019.42
2023-05-18T05:34:16.165Z,1019.37
2023-05-18T05:35:16.201Z,1019.43
2023-05-18T05:36:16.255Z,1019.39
2023-05-18T05:37:16.170Z,1019.48
2023-05-18T05:38:16.172Z,1019.35
2023-05-18T05:39:16.169Z,1019.46
2023-05-18T05:40:16.195Z,1019.48
2023-05-18T05:41:16.201Z,1019.45
2023-05-18T05:42:16.171Z,1019.56
2023-05-18T05:43:16.162Z,1019.51
2023-05-18T05:44:16.180Z,1019.54
2023-05-18T05:45:16.167Z,1019.47
2023-05-18T05:46:16.175Z,1019.46
2023-05-18T05:47:16.192Z,1019.49
2023-05-18T05:48:16.170Z,1019.55
2023-05-18T05:49:16.159Z,1019.53
2023-05-18T05:50:16.183Z,1019.51
2023-05-18T05:51:16.154Z,1019.50
2023-05-18T05:52:16.210Z,1019.57
2023-05-18T05:53:16.459Z,1019.62
2023-05-18T05:54:16.156Z,1019.60
2023-05-18T05:55:16.161Z,1019.63
2023-05-18T05:56:16.158Z,1019.62
2023-05-18T05:57:16.151Z,1019.69
2023-05-18T05:58:16.161Z,1019.67
2023-05-18T05:59:16.155Z,1019.69
2023-05-18T06:00:16.148Z,1019.69
2023-05-18T06:01:16.160Z,1019.68
2023-05-18T06:02:16.209Z,1019.68
2023-05-18T06:03:16.244Z,1019.63
2023-05-18T06:04:16.299Z,1019.73
2023-05-18T06:05:16.158Z,1019.73
2023-05-18T06:06:16.142Z,1019.76
2023-05-18T06:07:16.150Z,1019.77
2023-05-18T06:08:16.175Z,1019.76
2023-05-18T06:09:16.133Z,1019.75
2023-05-18T06:10:16.169Z,1019.74
2023-05-18T06:11:16.147Z,1019.85
2023-05-18T06:12:16.144Z,1019.80
2023-05-18T06:13:16.131Z,1019.91
2023-05-18T06:14:16.134Z,1019.81
2023-05-18T06:15:16.167Z,1019.87
2023-05-18T06:16:16.145Z,1019.84
2023-05-18T06:17:16.138Z,1019.92
2023-05-18T06:18:16.205Z,1019.94
2023-05-18T06:19:16.188Z,1019.92
2023-05-18T06:20:16.127Z,1019.91
2023-05-18T06:21:16.133Z,1019.95
2023-05-18T06:22:16.130Z,1020.00
2023-05-18T06:23:16.138Z,1019.95
2023-05-18T06:24:16.157Z,1020.07
2023-05-18T06:25:16.128Z,1020.02
2023-05-18T06:26:16.121Z,1020.06
2023-05-18T06:27:16.119Z,1020.03
2023-05-18T06:28:16.123Z,1020.09
2023-05-18T06:29:16.125Z,1020.15
2023-05-18T06:30:16.127Z,1020.10
2023-05-18T06:31:16.117Z,1020.07
2023-05-18T06:32:16.181Z,1020.13
2023-05-18T06:33:16.175Z,1020.18
2023-05-18T06:34:16.146Z,1020.13
2023-05-18T06:35:16.122Z,1020.21
2023-05-18T06:36:16.121Z,1020.16
2023-05-18T06:37:16.130Z,1020.18
2023-05-18T06:38:16.129Z,1020.17
2023-05-18T06:39:16.112Z,1020.18
2023-05-18T06:40:16.144Z,1020.12
2023-05-18T06:41:16.127Z,1020.17
2023-05-18T06:42:16.127Z,1020.16
2023-05-18T06:43:16.120Z,1020.18
2023-05-18T06:44:16.115Z,1020.21
2023-05-18T06:45:16.117Z,1020.17
2023-05-18T06:46:16.161Z,1020.20
2023-05-18T06:47:16.112Z,1020.27
2023-05-18T06:48:16.115Z,1020.24
2023-05-18T06:49:16.107Z,1020.28
2023-05-18T06:50:16.108Z,1020.29
2023-05-18T06:51:16.117Z,1020.20
2023-05-18T06:52:16.109Z,1020.24
2023-05-18T06:53:16.122Z,1020.29
2023-05-18T06:54:16.103Z,1020.23
2023-05-18T06:55:16.115Z,1020.27
2023-05-18T06:56:16.195Z,1020.37
2023-05-18T06:57:16.114Z,1020.37
2023-05-18T06:58:16.106Z,1020.32
2023-05-18T06:59:16.264Z,1020.34
2023-05-18T07:00:16.102Z,1020.36
2023-05-18T07:01:16.139Z,1020.47
2023-05-18T07:02:16.111Z,1020.45
2023-05-18T07:03:16.212Z,1020.45
2023-05-18T07:04:16.233Z,1020.50
2023-05-18T07:05:16.094Z,1020.45
2023-05-18T07:06:16.104Z,1020.55
2023-05-18T07:07:16.093Z,1020.51
2023-05-18T07:08:16.129Z,1020.56
2023-05-18T07:09:16.098Z,1020.47
2023-05-18T07:10:16.087Z,1020.60
2023-05-18T07:11:16.087Z,1020.59
2023-05-18T07:12:16.140Z,1020.54
2023-05-18T07:13:16.087Z,1020.56
2023-05-18T07:14:16.092Z,1020.57
2023-05-18T07:15:16.091Z,1020.54
2023-05-18T07:16:16.151Z,1020.58
2023-05-18T07:17:16.088Z,1020.59
2023-05-18T07:18:16.095Z,1020.51
2023-05-18T07:19:16.121Z,1020.49
2023-05-18T07:20:16.080Z,1020.62
2023-05-18T07:21:16.086Z,1020.60
2023-05-18T07:22:16.091Z,1020.76
2023-05-18T07:23:16.078Z,1020.71
2023-05-18T07:24:16.125Z,1020.79
2023-05-18T07:25:16.082Z,1020.77
2023-05-18T07:26:16.074Z,1020.78
2023-05-18T07:27:16.075Z,1020.72
2023-05-18T07:28:16.107Z,1020.73
2023-05-18T07:29:16.111Z,1020.79
2023-05-18T07:30:16.074Z,1020.71
2023-05-18T07:31:16.072Z,1020.78
2023-05-18T07:32:16.072Z,1020.79
2023-05-18T07:33:16.114Z,1020.83
2023-05-18T07:34:16.076Z,1020.79
2023-05-18T07:35:16.068Z,1020.75
2023-05-18T07:36:16.067Z,1020.73
2023-05-18T07:37:16.072Z,1020.78
2023-05-18T07:38:16.068Z,1020.87
2023-05-18T07:39:17.442Z,1020.95
2023-05-18T07:40:16.066Z,1020.85
2023-05-18T07:41:16.080Z,1020.85
2023-05-18T07:42:16.078Z,1020.76
2023-05-18T07:43:16.070Z,1020.80
2023-05-18T07:44:16.100Z,1020.81
2023-05-18T07:45:16.075Z,1020.88
2023-05-18T07:46:16.070Z,1020.95
2023-05-18T07:47:16.060Z,1020.91
2023-05-18T07:48:16.065Z,1020.91
2023-05-18T07:49:16.062Z,1020.93
2023-05-18T07:50:16.064Z,1020.99
2023-05-18T07:51:16.057Z,1020.91
2023-05-18T07:52:16.066Z,1020.90
2023-05-18T07:53:16.056Z,1020.96
2023-05-18T07:54:16.069Z,1021.04
2023-05-18T07:55:16.050Z,1021.06
2023-05-18T07:56:16.050Z,1021.02
2023-05-18T07:57:16.056Z,1021.12
2023-05-18T07:58:16.060Z,1021.07
2023-05-18T07:59:16.070Z,1021.12
2023-05-18T08:00:16.189Z,1021.05
2023-05-18T08:01:16.049Z,1021.06
2023-05-18T08:02:16.117Z,1021.13
2023-05-18T08:03:16.160Z,1021.12
2023-05-18T08:04:16.198Z,1021.08
2023-05-18T08:05:16.058Z,1021.25
2023-05-18T08:06:16.057Z,1021.26
2023-05-18T08:07:16.074Z,1021.17
2023-05-18T08:08:16.091Z,1021.33
2023-05-18T08:09:16.060Z,1021.26
2023-05-18T08:10:16.075Z,1021.25
2023-05-18T08:11:16.054Z,1021.26
2023-05-18T08:12:16.073Z,1021.22
2023-05-18T08:13:16.041Z,1021.27
2023-05-18T08:14:16.063Z,1021.33
2023-05-18T08:15:16.084Z,1021.29
2023-05-18T08:16:16.162Z,1021.31
2023-05-18T08:17:16.044Z,1021.29
2023-05-18T08:18:16.152Z,1021.28
2023-05-18T08:19:16.106Z,1021.36
2023-05-18T08:20:16.049Z,1021.26
2023-05-18T08:21:16.033Z,1021.35
2023-05-18T08:22:16.028Z,1021.32
2023-05-18T08:23:16.067Z,1021.38
2023-05-18T08:24:16.024Z,1021.40
2023-05-18T08:25:16.030Z,1021.45
2023-05-18T08:26:16.060Z,1021.56
2023-05-18T08:27:16.050Z,1021.53
2023-05-18T08:28:16.026Z,1021.55
2023-05-18T08:29:16.027Z,1021.46
2023-05-18T08:30:16.025Z,1021.51
2023-05-18T08:31:16.060Z,1021.49
2023-05-18T08:32:16.094Z,1021.56
2023-05-18T08:33:16.065Z,1021.59
2023-05-18T08:34:16.030Z,1021.48
2023-05-18T08:35:16.032Z,1021.58
2023-05-18T08:36:16.018Z,1021.59
2023-05-18T08:37:16.021Z,1021.62
2023-05-18T08:38:16.021Z,1021.67
2023-05-18T08:39:16.007Z,1021.65
2023-05-18T08:40:16.069Z,1021.59
2023-05-18T08:41:16.014Z,1021.60
2023-05-18T08:42:16.019Z,1021.57
2023-05-18T08:43:16.014Z,1021.60
2023-05-18T08:44:16.014Z,1021.64
2023-05-18T08:45:16.020Z,1021.63
2023-05-18T08:46:16.022Z,1021.70
2023-05-18T08:47:16.019Z,1021.73
2023-05-18T08:48:16.215Z,1021.74
2023-05-18T08:49:16.014Z,1021.79
2023-05-18T08:50:16.013Z,1021.83
2023-05-18T08:51:16.009Z,1021.88
2023-05-18T08:52:16.001Z,1021.80
2023-05-18T08:53:16.001Z,1021.90
2023-05-18T08:54:16.005Z,1021.88
2023-05-18T08:55:16.008Z,1021.89
2023-05-18T08:56:16.007Z,1021.86
2023-05-18T08:57:16.019Z,1021.86
2023-05-18T08:58:16.002Z,1021.89
2023-05-18T08:59:16.000Z,1021.87
2023-05-18T09:00:16.009Z,1021.89
2023-05-18T09:01:16.048Z,1021.84
2023-05-18T09:02:15.995Z,1021.86
2023-05-18T09:03:16.089Z,1021.94
2023-05-18T09:04:16.021Z,1021.85
2023-05-18T09:05:16.106Z,1021.93
2023-05-18T09:06:16.019Z,1021.92
2023-05-18T09:07:16.001Z,1021.94
2023-05-18T09:08:15.987Z,1022.10
2023-05-18T09:09:15.997Z,1022.07
2023-05-18T09:10:16.142Z,1022.03
2023-05-18T09:11:15.988Z,1022.05
2023-05-18T09:12:15.995Z,1022.12
2023-05-18T09:13:15.994Z,1021.98
2023-05-18T09:14:15.994Z,1022.06
2023-05-18T09:15:15.983Z,1022.09
2023-05-18T09:16:16.029Z,1022.11
2023-05-18T09:17:15.990Z,1022.14
2023-05-18T09:18:15.989Z,1022.24
2023-05-18T09:19:15.993Z,1022.21
2023-05-18T09:20:16.010Z,1022.28
2023-05-18T09:21:15.981Z,1022.17
2023-05-18T09:22:15.980Z,1022.20
2023-05-18T09:23:15.981Z,1022.30
2023-05-18T09:24:15.995Z,1022.35
2023-05-18T09:25:15.987Z,1022.33
2023-05-18T09:26:15.982Z,1022.36
2023-05-18T09:27:15.989Z,1022.36
2023-05-18T09:28:15.980Z,1022.46
2023-05-18T09:29:15.988Z,1022.35
2023-05-18T09:30:15.977Z,1022.38
2023-05-18T09:31:15.985Z,1022.42
2023-05-18T09:32:15.970Z,1022.37
2023-05-18T09:33:16.121Z,1022.32
2023-05-18T09:34:15.969Z,1022.29
2023-05-18T09:35:15.980Z,1022.28
2023-05-18T09:36:16.006Z,1022.30
2023-05-18T09:37:15.969Z,1022.33
2023-05-18T09:38:15.970Z,1022.41
2023-05-18T09:39:15.967Z,1022.41
2023-05-18T09:40:15.966Z,1022.44
2023-05-18T09:41:15.971Z,1022.37
2023-05-18T09:42:15.964Z,1022.46
2023-05-18T09:43:15.973Z,1022.49
2023-05-18T09:44:15.962Z,1022.52
2023-05-18T09:45:15.967Z,1022.54
2023-05-18T09:46:15.978Z,1022.51
2023-05-18T09:47:15.960Z,1022.52
2023-05-18T09:48:15.958Z,1022.50
2023-05-18T09:49:15.960Z,1022.59
2023-05-18T09:50:15.961Z,1022.50
2023-05-18T09:51:15.967Z,1022.58
2023-05-18T09:52:15.997Z,1022.62
2023-05-18T09:53:15.974Z,1022.57
2023-05-18T09:54:15.957Z,1022.59
2023-05-18T09:55:15.965Z,1022.51
2023-05-18T09:56:15.958Z,1022.61
2023-05-18T09:57:15.967Z,1022.59
2023-05-18T09:58:15.954Z,1022.68
2023-05-18T09:59:15.966Z,1022.67
2023-05-18T10:00:15.955Z,1022.65
2023-05-18T10:01:15.992Z,1022.68
2023-05-18T10:02:15.960Z,1022.61
2023-05-18T10:03:15.961Z,1022.59
2023-05-18T10:04:15.986Z,1022.60
2023-05-18T10:05:15.962Z,1022.57
2023-05-18T10:06:15.949Z,1022.69
2023-05-18T10:07:15.979Z,1022.75
2023-05-18T10:08:15.992Z,1022.73
2023-05-18T10:09:15.950Z,1022.68
2023-05-18T10:10:15.959Z,1022.68
2023-05-18T10:11:15.954Z,1022.71
2023-05-18T10:12:15.975Z,1022.70
2023-05-18T10:13:15.954Z,1022.64
2023-05-18T10:14:15.948Z,1022.70
2023-05-18T10:15:15.959Z,1022.69
2023-05-18T10:16:16.045Z,1022.68
2023-05-18T10:17:16.998Z,1022.70
2023-05-18T10:18:15.984Z,1022.81
2023-05-18T10:19:16.029Z,1022.79
2023-05-18T10:20:15.949Z,1022.77
2023-05-18T10:21:15.950Z,1022.82
2023-05-18T10:22:15.956Z,1022.84
2023-05-18T10:23:15.942Z,1022.83
2023-05-18T10:24:15.959Z,1022.80
2023-05-18T10:25:15.940Z,1022.84
2023-05-18T10:26:15.946Z,1022.88
2023-05-18T10:27:15.952Z,1022.93
2023-05-18T10:28:15.947Z,1022.86
2023-05-18T10:29:15.943Z,1022.88
2023-05-18T10:30:15.940Z,1022.94
2023-05-18T10:31:15.976Z,1022.93
2023-05-18T10:32:15.939Z,1022.90
2023-05-18T10:33:27.979Z,1022.88
2023-05-18T10:34:15.942Z,1022.95
2023-05-18T10:35:15.990Z,1022.91
2023-05-18T10:36:15.944Z,1022.91
2023-05-18T10:37:15.937Z,1022.94
2023-05-18T10:38:15.939Z,1022.95
2023-05-18T10:39:15.935Z,1022.96
2023-05-18T10:40:15.965Z,1022.95
2023-05-18T10:41:15.932Z,1023.04
2023-05-18T10:42:15.935Z,1022.99
2023-05-18T10:43:18.394Z,1023.05
2023-05-18T10:44:15.938Z,1023.05
2023-05-18T10:45:15.958Z,1022.98
2023-05-18T10:46:16.016Z,1022.99
2023-05-18T10:47:16.084Z,1022.94
2023-05-18T10:48:15.952Z,1022.96
2023-05-18T10:49:15.923Z,1022.94
2023-05-18T10:50:15.939Z,1022.97
2023-05-18T10:51:15.935Z,1022.96
2023-05-18T10:52:15.939Z,1022.94
2023-05-18T10:53:15.938Z,1022.96
2023-05-18T10:54:15.939Z,1022.98
2023-05-18T10:55:15.925Z,1023.04
2023-05-18T10:56:15.985Z,1023.11
2023-05-18T10:57:15.943Z,1023.09
2023-05-18T10:58:15.928Z,1023.08
2023-05-18T10:59:15.940Z,1023.12
2023-05-18T11:00:15.951Z,1023.15
2023-05-18T11:01:16.025Z,1023.14
2023-05-18T11:02:15.926Z,1023.09
2023-05-18T11:03:15.983Z,1023.12
2023-05-18T11:04:15.947Z,1023.07
2023-05-18T11:05:16.089Z,1023.07
2023-05-18T11:06:15.916Z,1023.06
2023-05-18T11:07:15.931Z,1023.07
2023-05-18T11:08:15.932Z,1023.15
2023-05-18T11:09:15.931Z,1023.15
2023-05-18T11:10:16.004Z,1023.21
2023-05-18T11:11:18.676Z,1023.14
2023-05-18T11:12:15.963Z,1023.24
2023-05-18T11:13:15.924Z,1023.31
2023-05-18T11:14:15.921Z,1023.32
2023-05-18T11:15:15.921Z,1023.31
2023-05-18T11:16:16.005Z,1023.35
2023-05-18T11:17:15.927Z,1023.42
2023-05-18T11:18:15.939Z,1023.31
2023-05-18T11:19:15.932Z,1023.40
2023-05-18T11:20:16.025Z,1023.35
2023-05-18T11:21:15.920Z,1023.42
2023-05-18T11:22:15.914Z,1023.44
2023-05-18T11:23:15.921Z,1023.47
2023-05-18T11:24:15.929Z,1023.50
2023-05-18T11:25:15.919Z,1023.42
2023-05-18T11:26:15.913Z,1023.45
2023-05-18T11:27:15.938Z,1023.47
2023-05-18T11:28:15.955Z,1023.34
2023-05-18T11:29:15.912Z,1023.38
2023-05-18T11:30:16.036Z,1023.37
2023-05-18T11:31:15.914Z,1023.42
2023-05-18T11:32:20.693Z,1023.50
2023-05-18T11:33:16.018Z,1023.44
2023-05-18T11:34:15.921Z,1023.45
2023-05-18T11:35:15.918Z,1023.51
2023-05-18T11:36:15.912Z,1023.52
2023-05-18T11:37:15.920Z,1023.55
2023-05-18T11:38:15.914Z,1023.52
2023-05-18T11:39:15.908Z,1023.60
2023-05-18T11:40:15.917Z,1023.65
2023-05-18T11:41:15.910Z,1023.69
2023-05-18T11:42:15.912Z,1023.66
2023-05-18T11:43:15.910Z,1023.67
2023-05-18T11:44:16.087Z,1023.68
2023-05-18T11:45:15.905Z,1023.64
2023-05-18T11:46:15.911Z,1023.69
2023-05-18T11:47:15.910Z,1023.71
2023-05-18T11:48:16.041Z,1023.75
2023-05-18T11:49:15.995Z,1023.75
2023-05-18T11:50:16.210Z,1023.65
2023-05-18T11:51:15.913Z,1023.77
2023-05-18T11:52:15.914Z,1023.75
2023-05-18T11:53:15.909Z,1023.78
2023-05-18T11:54:15.905Z,1023.83
2023-05-18T11:55:15.905Z,1023.84
2023-05-18T11:56:15.909Z,1023.89
2023-05-18T11:57:15.924Z,1023.92
2023-05-18T11:58:15.898Z,1023.96
2023-05-18T11:59:15.902Z,1023.92
2023-05-18T12:00:15.969Z,1023.89
2023-05-18T12:01:15.909Z,1023.92
2023-05-18T12:02:15.984Z,1023.97
2023-05-18T12:03:15.988Z,1023.95
2023-05-18T12:04:16.070Z,1023.98
2023-05-18T12:05:15.920Z,1023.93